createdAt,value
2018-03-06T00:01:48.433Z,4.65
2018-03-06T00:04:16.757Z,4.75
2018-03-06T00:06:45.116Z,4.55
2018-03-06T00:09:14.512Z,4.44
2018-03-06T00:11:42.865Z,4.50
2018-03-06T00:14:11.187Z,4.56
2018-03-06T00:16:39.551Z,4.53
2018-03-06T00:19:07.906Z,4.47
2018-03-06T00:21:36.285Z,4.25
2018-03-06T00:24:04.692Z,4.14
2018-03-06T00:26:33.037Z,4.02
2018-03-06T00:29:01.373Z,4.17
2018-03-06T00:31:29.795Z,4.18
2018-03-06T00:33:58.216Z,3.96
2018-03-06T00:36:26.561Z,4.07
2018-03-06T00:38:54.935Z,4.15
2018-03-06T00:41:23.330Z,4.24
2018-03-06T00:43:51.714Z,4.22
2018-03-06T00:46:20.069Z,4.31
2018-03-06T00:48:48.443Z,4.12
2018-03-06T00:51:16.808Z,3.99
2018-03-06T00:53:45.583Z,4.08
2018-03-06T00:56:14.130Z,4.08
2018-03-06T00:58:42.471Z,3.99
2018-03-06T01:01:11.683Z,4.10
2018-03-06T01:03:40.177Z,4.17
2018-03-06T01:06:08.528Z,4.26
2018-03-06T01:08:36.906Z,4.13
2018-03-06T01:11:05.252Z,3.95
2018-03-06T01:13:33.577Z,4.27
2018-03-06T01:16:02.004Z,4.03
2018-03-06T01:18:31.149Z,3.78
2018-03-06T01:20:59.506Z,4.08
2018-03-06T01:23:28.621Z,4.14
2018-03-06T01:25:56.996Z,4.15
2018-03-06T01:28:25.333Z,4.04
2018-03-06T01:30:53.698Z,4.13
2018-03-06T01:33:22.074Z,4.11
2018-03-06T01:35:50.660Z,4.14
2018-03-06T01:38:19.398Z,4.16
2018-03-06T01:40:47.733Z,4.17
2018-03-06T01:43:16.073Z,3.99
2018-03-06T01:45:44.434Z,3.90
2018-03-06T01:48:13.521Z,3.85
2018-03-06T01:50:42.651Z,3.95
2018-03-06T01:53:11.101Z,3.73
2018-03-06T01:55:39.466Z,3.97
2018-03-06T01:58:07.789Z,3.88
2018-03-06T02:00:36.268Z,3.86
2018-03-06T02:03:04.597Z,3.88
2018-03-06T02:05:32.914Z,3.94
2018-03-06T02:08:01.289Z,3.93
2018-03-06T02:10:29.630Z,3.80
2018-03-06T02:12:58.030Z,3.97
2018-03-06T02:15:27.207Z,3.96
2018-03-06T02:17:55.526Z,4.00
2018-03-06T02:20:23.925Z,3.97
2018-03-06T02:22:52.664Z,3.80
2018-03-06T02:25:20.981Z,3.64
2018-03-06T02:27:49.302Z,3.70
2018-03-06T02:30:17.749Z,3.58
2018-03-06T02:32:46.062Z,3.60
2018-03-06T02:35:14.392Z,3.74
2018-03-06T02:37:42.732Z,3.67
2018-03-06T02:40:11.038Z,3.67
2018-03-06T02:42:39.364Z,3.57
2018-03-06T02:45:08.543Z,3.80
2018-03-06T02:47:36.863Z,3.69
2018-03-06T02:50:05.189Z,3.69
2018-03-06T02:52:33.538Z,3.56
2018-03-06T02:55:03.689Z,3.69
2018-03-06T02:57:32.098Z,3.55
2018-03-06T03:00:00.475Z,3.43
2018-03-06T03:02:28.792Z,3.37
2018-03-06T03:04:57.913Z,3.50
2018-03-06T03:07:27.116Z,3.26
2018-03-06T03:09:55.446Z,3.41
2018-03-06T03:12:23.772Z,3.34
2018-03-06T03:14:52.118Z,3.31
2018-03-06T03:17:20.461Z,3.23
2018-03-06T03:19:49.554Z,3.42
2018-03-06T03:22:17.927Z,3.34
2018-03-06T03:24:47.053Z,3.60
2018-03-06T03:27:15.409Z,3.67
2018-03-06T03:29:43.990Z,3.66
2018-03-06T03:32:13.117Z,3.46
2018-03-06T03:34:41.504Z,3.50
2018-03-06T03:37:09.876Z,3.47
2018-03-06T03:39:38.203Z,3.53
2018-03-06T03:42:06.605Z,3.47
2018-03-06T03:44:35.791Z,3.52
2018-03-06T03:47:04.146Z,3.37
2018-03-06T03:49:32.500Z,3.28
2018-03-06T03:52:01.281Z,3.34
2018-03-06T03:54:29.714Z,3.41
2018-03-06T03:56:58.130Z,3.50
2018-03-06T03:59:27.261Z,3.48
2018-03-06T04:01:55.585Z,3.38
2018-03-06T04:04:24.762Z,3.36
2018-03-06T04:06:53.921Z,3.61
2018-03-06T04:09:22.289Z,3.72
2018-03-06T04:11:50.629Z,3.87
2018-03-06T04:14:19.401Z,3.90
2018-03-06T04:16:47.811Z,3.93
2018-03-06T04:19:16.153Z,3.79
2018-03-06T04:21:44.497Z,3.76
2018-03-06T04:24:12.853Z,3.81
2018-03-06T04:26:41.973Z,3.87
2018-03-06T04:29:10.374Z,3.95
2018-03-06T04:31:38.735Z,3.88
2018-03-06T04:34:07.058Z,3.92
2018-03-06T04:36:35.591Z,3.74
2018-03-06T04:39:03.970Z,3.71
2018-03-06T04:41:32.329Z,3.62
2018-03-06T04:44:00.694Z,3.51
2018-03-06T04:46:29.022Z,3.48
2018-03-06T04:48:57.357Z,3.36
2018-03-06T04:51:25.998Z,3.37
2018-03-06T04:53:54.318Z,3.35
2018-03-06T04:56:22.677Z,3.47
2018-03-06T04:58:51.331Z,3.48
2018-03-06T05:01:19.662Z,3.40
2018-03-06T05:03:48.008Z,3.49
2018-03-06T05:06:16.427Z,3.45
2018-03-06T05:08:45.578Z,3.32
2018-03-06T05:11:13.876Z,3.19
2018-03-06T05:13:42.218Z,3.14
2018-03-06T05:16:10.597Z,3.10
2018-03-06T05:18:38.940Z,3.12
2018-03-06T05:21:07.483Z,3.15
2018-03-06T05:23:35.833Z,3.19
2018-03-06T05:26:04.178Z,3.28
2018-03-06T05:28:32.509Z,3.09
2018-03-06T05:31:00.826Z,3.19
2018-03-06T05:33:29.206Z,3.19
2018-03-06T05:35:57.598Z,3.22
2018-03-06T05:38:25.966Z,3.10
2018-03-06T05:40:54.326Z,3.12
2018-03-06T05:43:22.860Z,3.13
2018-03-06T05:45:51.282Z,3.16
2018-03-06T05:48:19.616Z,3.20
2018-03-06T05:50:48.812Z,3.07
2018-03-06T05:53:17.142Z,3.06
2018-03-06T05:55:45.478Z,2.98
2018-03-06T05:58:13.848Z,3.04
2018-03-06T06:00:42.951Z,3.06
2018-03-06T06:03:12.056Z,3.08
2018-03-06T06:05:40.699Z,3.09
2018-03-06T06:08:09.133Z,3.17
2018-03-06T06:10:37.480Z,3.20
2018-03-06T06:13:05.837Z,3.26
2018-03-06T06:15:35.034Z,3.32
2018-03-06T06:18:03.337Z,3.16
2018-03-06T06:20:31.694Z,3.22
2018-03-06T06:22:59.984Z,3.32
2018-03-06T06:25:28.332Z,3.39
2018-03-06T06:27:56.879Z,3.53
2018-03-06T06:30:25.232Z,3.82
2018-03-06T06:32:53.572Z,4.34
2018-03-06T06:35:21.952Z,4.84
2018-03-06T06:37:50.298Z,5.14
2018-03-06T06:40:18.672Z,5.51
2018-03-06T06:42:47.022Z,5.99
2018-03-06T06:45:15.359Z,6.36
2018-03-06T06:47:43.664Z,6.66
2018-03-06T06:50:13.002Z,7.03
2018-03-06T06:52:42.146Z,7.27
2018-03-06T06:55:10.483Z,7.67
2018-03-06T06:57:39.628Z,7.75
2018-03-06T07:00:07.946Z,7.93
2018-03-06T07:02:36.294Z,7.91
2018-03-06T07:05:04.681Z,7.81
2018-03-06T07:07:33.019Z,8.41
2018-03-06T07:10:01.355Z,8.13
2018-03-06T07:12:30.682Z,8.52
2018-03-06T07:14:59.068Z,8.90
2018-03-06T07:17:27.443Z,9.44
2018-03-06T07:19:55.862Z,9.86
2018-03-06T07:22:24.209Z,10.59
2018-03-06T07:24:52.566Z,10.77
2018-03-06T07:27:20.964Z,11.11
2018-03-06T07:29:49.347Z,11.10
2018-03-06T07:32:17.706Z,11.31
2018-03-06T07:34:47.026Z,10.91
2018-03-06T07:37:15.364Z,10.59
2018-03-06T07:39:43.710Z,10.90
2018-03-06T07:42:12.832Z,10.67
2018-03-06T07:44:41.201Z,11.56
2018-03-06T07:47:09.582Z,10.90
2018-03-06T07:49:37.969Z,12.20
2018-03-06T07:52:06.306Z,11.08
2018-03-06T07:54:34.619Z,10.62
2018-03-06T07:57:03.308Z,10.81
2018-03-06T07:59:31.626Z,10.35
2018-03-06T08:02:00.702Z,11.29
2018-03-06T08:04:29.862Z,11.88
2018-03-06T08:06:58.257Z,12.37
2018-03-06T08:09:26.618Z,12.75
2018-03-06T08:11:54.980Z,12.30
2018-03-06T08:14:23.308Z,12.83
2018-03-06T08:16:51.792Z,13.76
2018-03-06T08:19:20.464Z,14.26
2018-03-06T08:21:48.802Z,13.36
2018-03-06T08:24:17.161Z,13.78
2018-03-06T08:26:45.534Z,13.97
2018-03-06T08:29:14.648Z,14.03
2018-03-06T08:31:42.987Z,14.08
2018-03-06T08:34:11.370Z,15.47
2018-03-06T08:36:39.761Z,14.90
2018-03-06T08:39:08.082Z,12.77
2018-03-06T08:41:36.537Z,13.50
2018-03-06T08:44:04.872Z,12.07
2018-03-06T08:46:33.255Z,13.29
2018-03-06T08:49:01.623Z,14.49
2018-03-06T08:51:29.983Z,14.00
2018-03-06T08:53:58.322Z,14.74
2018-03-06T08:56:26.692Z,15.39
2018-03-06T08:58:55.795Z,14.97
2018-03-06T09:01:24.882Z,15.08
2018-03-06T09:03:54.177Z,14.81
2018-03-06T09:06:22.536Z,14.98
2018-03-06T09:08:50.886Z,14.80
2018-03-06T09:11:19.252Z,15.50
2018-03-06T09:13:47.854Z,16.28
2018-03-06T09:16:16.161Z,16.12
2018-03-06T09:18:44.538Z,15.81
2018-03-06T09:21:12.866Z,15.82
2018-03-06T09:23:41.248Z,15.32
2018-03-06T09:26:10.273Z,15.82
2018-03-06T09:28:38.602Z,16.07
2018-03-06T09:31:07.764Z,17.03
2018-03-06T09:33:36.162Z,18.38
2018-03-06T09:36:04.510Z,17.67
2018-03-06T09:38:32.867Z,17.23
2018-03-06T09:41:01.249Z,18.05
2018-03-06T09:43:29.605Z,17.63
2018-03-06T09:45:57.962Z,17.50
2018-03-06T09:48:28.124Z,17.82
2018-03-06T09:50:56.470Z,19.95
2018-03-06T09:53:24.801Z,21.50
2018-03-06T09:55:53.157Z,20.63
2018-03-06T09:58:21.492Z,18.96
2018-03-06T10:00:49.852Z,18.21
2018-03-06T10:03:18.674Z,18.85
2018-03-06T10:05:47.005Z,18.50
2018-03-06T10:08:15.346Z,19.62
2018-03-06T10:10:43.866Z,19.66
2018-03-06T10:13:12.220Z,17.42
2018-03-06T10:15:40.553Z,18.94
2018-03-06T10:18:08.896Z,18.83
2018-03-06T10:20:37.237Z,19.95
2018-03-06T10:23:06.324Z,19.32
2018-03-06T10:25:34.676Z,17.67
2018-03-06T10:28:03.062Z,17.46
2018-03-06T10:30:31.398Z,17.73
2018-03-06T10:33:00.254Z,18.71
2018-03-06T10:35:29.423Z,16.91
2018-03-06T10:37:58.148Z,17.67
2018-03-06T10:40:26.490Z,16.98
2018-03-06T10:42:54.857Z,17.99
2018-03-06T10:45:23.184Z,18.79
2018-03-06T10:47:51.592Z,17.40
2018-03-06T10:50:19.923Z,19.07
2018-03-06T10:52:48.239Z,19.80
2018-03-06T10:55:17.021Z,21.48
2018-03-06T10:57:45.373Z,20.59
2018-03-06T11:00:14.484Z,19.72
2018-03-06T11:02:42.844Z,21.56
2018-03-06T11:05:11.210Z,21.65
2018-03-06T11:07:39.557Z,19.64
2018-03-06T11:10:07.957Z,19.15
2018-03-06T11:12:36.276Z,17.98
2018-03-06T11:15:05.381Z,18.06
2018-03-06T11:17:34.352Z,18.24
2018-03-06T11:20:03.425Z,18.62
2018-03-06T11:22:31.772Z,17.73
2018-03-06T11:25:00.367Z,18.14
2018-03-06T11:27:28.771Z,19.07
2018-03-06T11:29:57.117Z,18.42
2018-03-06T11:32:25.545Z,19.44
2018-03-06T11:34:53.885Z,18.38
2018-03-06T11:37:22.907Z,18.78
2018-03-06T11:39:52.400Z,17.82
2018-03-06T11:42:20.788Z,17.34
2018-03-06T11:44:49.128Z,17.52
2018-03-06T11:47:17.478Z,19.29
2018-03-06T11:49:46.564Z,19.77
2018-03-06T11:52:15.671Z,18.77
2018-03-06T11:54:44.869Z,18.67
2018-03-06T11:57:13.234Z,18.91
2018-03-06T11:59:42.336Z,19.58
2018-03-06T12:02:12.363Z,20.40
2018-03-06T12:04:41.469Z,20.91
2018-03-06T12:07:09.887Z,22.13
2018-03-06T12:09:38.302Z,19.77
2018-03-06T12:12:07.415Z,18.86
2018-03-06T12:14:36.552Z,19.21
2018-03-06T12:17:04.902Z,20.09
2018-03-06T12:19:33.868Z,19.14
2018-03-06T12:22:02.963Z,19.47
2018-03-06T12:24:31.408Z,20.32
2018-03-06T12:26:59.756Z,21.00
2018-03-06T12:29:28.453Z,19.30
2018-03-06T12:31:56.810Z,19.80
2018-03-06T12:34:26.217Z,19.15
2018-03-06T12:36:54.544Z,19.22
2018-03-06T12:39:22.928Z,20.82
2018-03-06T12:41:51.509Z,20.78
2018-03-06T12:44:20.787Z,20.72
2018-03-06T12:46:49.566Z,22.13
2018-03-06T12:49:17.926Z,23.85
2018-03-06T12:51:47.058Z,23.89
2018-03-06T12:54:15.440Z,21.06
2018-03-06T12:56:43.812Z,22.89
2018-03-06T12:59:12.152Z,21.50
2018-03-06T13:01:41.165Z,21.00
2018-03-06T13:04:09.486Z,22.60
2018-03-06T13:06:37.812Z,23.05
2018-03-06T13:09:06.376Z,22.46
2018-03-06T13:11:34.687Z,19.75
2018-03-06T13:14:03.004Z,19.30
2018-03-06T13:16:32.661Z,19.96
2018-03-06T13:19:01.033Z,18.13
2018-03-06T13:21:30.113Z,18.96
2018-03-06T13:23:59.261Z,18.89
2018-03-06T13:26:27.634Z,17.55
2018-03-06T13:28:55.992Z,17.17
2018-03-06T13:31:24.668Z,18.58
2018-03-06T13:33:53.034Z,18.46
2018-03-06T13:36:22.141Z,17.73
2018-03-06T13:38:51.844Z,18.02
2018-03-06T13:41:20.944Z,17.29
2018-03-06T13:43:50.178Z,16.98
2018-03-06T13:46:18.615Z,16.26
2018-03-06T13:48:47.726Z,16.00
2018-03-06T13:51:16.050Z,15.65
2018-03-06T13:53:44.904Z,16.43
2018-03-06T13:56:13.266Z,16.02
2018-03-06T13:58:42.543Z,16.48
2018-03-06T14:01:10.887Z,17.04
2018-03-06T14:03:39.240Z,16.73
2018-03-06T14:06:07.621Z,17.01
2018-03-06T14:08:36.276Z,16.97
2018-03-06T14:11:04.625Z,16.06
2018-03-06T14:13:32.973Z,16.72
2018-03-06T14:16:01.515Z,16.90
2018-03-06T14:18:29.843Z,17.91
2018-03-06T14:20:58.167Z,17.21
2018-03-06T14:23:26.576Z,16.98
2018-03-06T14:25:55.665Z,16.53
2018-03-06T14:28:24.804Z,16.89
2018-03-06T14:30:53.212Z,16.32
2018-03-06T14:33:21.562Z,15.62
2018-03-06T14:35:49.917Z,15.71
2018-03-06T14:38:18.589Z,15.80
2018-03-06T14:40:47.691Z,15.41
2018-03-06T14:43:16.253Z,14.79
2018-03-06T14:45:45.562Z,14.28
2018-03-06T14:48:14.694Z,14.14
2018-03-06T14:50:43.025Z,14.42
2018-03-06T14:53:11.395Z,14.02
2018-03-06T14:55:39.748Z,13.74
2018-03-06T14:58:08.122Z,13.59
2018-03-06T15:00:36.548Z,13.55
2018-03-06T15:03:04.904Z,12.92
2018-03-06T15:05:33.261Z,12.20
2018-03-06T15:08:01.646Z,12.47
2018-03-06T15:10:29.991Z,12.68
2018-03-06T15:12:58.325Z,12.94
2018-03-06T15:15:26.669Z,12.66
2018-03-06T15:17:55.049Z,12.77
2018-03-06T15:20:23.406Z,12.60
2018-03-06T15:22:52.186Z,12.10
2018-03-06T15:25:21.276Z,12.26
2018-03-06T15:27:50.400Z,12.13
2018-03-06T15:30:18.766Z,12.17
2018-03-06T15:32:47.105Z,12.45
2018-03-06T15:35:15.452Z,12.12
2018-03-06T15:37:43.843Z,11.98
2018-03-06T15:40:12.205Z,11.82
2018-03-06T15:42:40.521Z,11.97
2018-03-06T15:45:09.650Z,11.88
2018-03-06T15:47:38.004Z,11.64
2018-03-06T15:50:06.374Z,11.86
2018-03-06T15:52:34.762Z,11.82
2018-03-06T15:55:03.109Z,11.90
2018-03-06T15:57:31.456Z,11.92
2018-03-06T15:59:59.841Z,11.87
2018-03-06T16:02:28.193Z,11.53
2018-03-06T16:04:56.571Z,11.45
2018-03-06T16:07:26.298Z,11.38
2018-03-06T16:09:54.790Z,11.31
2018-03-06T16:12:23.112Z,11.14
2018-03-06T16:14:51.464Z,11.20
2018-03-06T16:17:19.794Z,11.03
2018-03-06T16:19:48.116Z,11.05
2018-03-06T16:22:16.470Z,10.80
2018-03-06T16:24:44.816Z,10.72
2018-03-06T16:27:13.191Z,10.31
2018-03-06T16:29:41.634Z,10.25
2018-03-06T16:32:09.975Z,10.26
2018-03-06T16:34:38.364Z,10.37
2018-03-06T16:37:07.458Z,10.18
2018-03-06T16:39:35.767Z,9.84
2018-03-06T16:42:04.125Z,10.02
2018-03-06T16:44:32.499Z,10.08
2018-03-06T16:47:01.873Z,10.18
2018-03-06T16:49:30.238Z,10.19
2018-03-06T16:51:58.790Z,10.25
2018-03-06T16:54:27.098Z,9.78
2018-03-06T16:56:55.501Z,9.88
2018-03-06T16:59:24.657Z,9.65
2018-03-06T17:01:53.000Z,9.57
2018-03-06T17:04:21.326Z,9.51
2018-03-06T17:06:49.673Z,9.46
2018-03-06T17:09:18.264Z,9.52
2018-03-06T17:11:46.603Z,9.39
2018-03-06T17:14:16.816Z,9.15
2018-03-06T17:16:45.174Z,9.07
2018-03-06T17:19:13.504Z,9.03
2018-03-06T17:21:41.893Z,9.06
2018-03-06T17:24:10.210Z,8.96
2018-03-06T17:26:38.564Z,9.03
2018-03-06T17:29:06.958Z,9.03
2018-03-06T17:31:35.269Z,9.06
2018-03-06T17:34:04.350Z,8.86
2018-03-06T17:36:32.865Z,8.88
2018-03-06T17:39:01.224Z,8.92
2018-03-06T17:41:29.558Z,8.76
2018-03-06T17:43:58.031Z,8.76
2018-03-06T17:46:26.384Z,8.76
2018-03-06T17:48:54.732Z,8.92
2018-03-06T17:51:23.136Z,8.86
2018-03-06T17:53:52.223Z,8.90
2018-03-06T17:56:21.339Z,8.85
2018-03-06T17:58:50.715Z,9.02
2018-03-06T18:01:19.129Z,8.87
2018-03-06T18:03:47.465Z,8.81
2018-03-06T18:06:15.825Z,8.88
2018-03-06T18:08:44.896Z,8.84
2018-03-06T18:11:13.355Z,8.90
2018-03-06T18:13:41.722Z,8.53
2018-03-06T18:16:10.839Z,8.42
2018-03-06T18:18:39.164Z,8.42
2018-03-06T18:21:07.734Z,8.41
2018-03-06T18:23:36.100Z,8.48
2018-03-06T18:26:04.423Z,8.66
2018-03-06T18:28:32.789Z,8.51
2018-03-06T18:31:01.101Z,8.34
2018-03-06T18:33:29.452Z,8.34
2018-03-06T18:35:57.825Z,8.47
2018-03-06T18:38:26.136Z,8.51
2018-03-06T18:40:54.481Z,8.49
2018-03-06T18:43:23.199Z,8.53
2018-03-06T18:45:52.278Z,8.54
2018-03-06T18:48:20.617Z,8.45
2018-03-06T18:51:06.605Z,8.33
2018-03-06T18:53:34.920Z,8.26
2018-03-06T18:56:03.267Z,8.29
2018-03-06T18:58:31.723Z,8.41
2018-03-06T19:04:30.389Z,8.16
2018-03-06T19:07:14.613Z,8.04
2018-03-06T19:09:43.768Z,7.92
2018-03-06T19:12:12.852Z,8.12
2018-03-06T19:14:41.958Z,8.00
2018-03-06T19:17:10.608Z,7.94
2018-03-06T19:19:38.951Z,7.96
2018-03-06T19:22:07.305Z,7.78
2018-03-06T19:24:35.686Z,8.07
2018-03-06T19:27:04.041Z,8.12
2018-03-06T19:29:32.400Z,8.17
2018-03-06T19:32:00.798Z,8.35
2018-03-06T19:34:29.119Z,8.39
2018-03-06T19:36:57.442Z,8.08
2018-03-06T19:39:27.266Z,7.90
2018-03-06T19:41:55.597Z,8.13
2018-03-06T19:44:23.984Z,8.14
2018-03-06T19:46:52.344Z,8.24
2018-03-06T19:49:20.713Z,8.35
2018-03-06T19:51:49.086Z,8.30
2018-03-06T19:54:17.469Z,8.39
2018-03-06T19:56:45.810Z,8.44
2018-03-06T19:59:14.158Z,8.40
2018-03-06T20:01:42.606Z,8.42
2018-03-06T20:04:10.951Z,8.46
2018-03-06T20:06:40.164Z,8.38
2018-03-06T20:09:09.354Z,8.31
2018-03-06T20:11:37.793Z,8.18
2018-03-06T20:14:06.146Z,8.28
2018-03-06T20:16:34.523Z,8.23
2018-03-06T20:19:08.384Z,8.28
2018-03-06T20:21:37.004Z,8.29
2018-03-06T20:27:17.119Z,8.04
2018-03-06T20:29:45.491Z,7.97
2018-03-06T20:32:19.462Z,7.98
2018-03-06T20:34:48.588Z,7.94
2018-03-06T20:37:16.952Z,7.96
2018-03-06T20:39:50.788Z,7.88
2018-03-06T20:42:19.146Z,7.78
2018-03-06T20:44:47.520Z,7.87
2018-03-06T20:47:21.152Z,7.75
2018-03-06T20:49:49.590Z,7.78
2018-03-06T20:52:18.745Z,7.85
2018-03-06T20:54:52.842Z,7.76
2018-03-06T20:57:21.171Z,7.87
2018-03-06T20:59:50.292Z,7.80
2018-03-06T21:02:18.649Z,7.69
2018-03-06T21:04:46.981Z,7.53
2018-03-06T21:07:15.329Z,7.75
2018-03-06T21:09:43.790Z,7.61
2018-03-06T21:12:12.921Z,7.60
2018-03-06T21:14:41.289Z,7.63
2018-03-06T21:17:10.568Z,7.63
2018-03-06T21:19:38.888Z,7.65
2018-03-06T21:22:07.252Z,7.64
2018-03-06T21:24:35.628Z,7.52
2018-03-06T21:27:03.973Z,7.51
2018-03-06T21:29:32.311Z,7.47
2018-03-06T21:32:00.684Z,7.57
2018-03-06T21:34:29.035Z,7.49
2018-03-06T21:36:57.386Z,7.59
2018-03-06T21:39:26.116Z,7.57
2018-03-06T21:41:54.509Z,7.50
2018-03-06T21:44:22.911Z,7.58
2018-03-06T21:46:51.298Z,7.45
2018-03-06T21:49:20.132Z,7.42
2018-03-06T21:51:48.467Z,7.52
2018-03-06T21:54:16.847Z,7.43
2018-03-06T21:56:45.210Z,7.31
2018-03-06T21:59:13.711Z,7.18
2018-03-06T22:01:42.208Z,7.22
2018-03-06T22:04:11.346Z,7.27
2018-03-06T22:06:39.699Z,7.19
2018-03-06T22:09:08.084Z,7.37
2018-03-06T22:11:36.442Z,7.38
2018-03-06T22:14:04.791Z,7.26
2018-03-06T22:16:33.298Z,7.10
2018-03-06T22:19:01.769Z,7.08
2018-03-06T22:21:30.873Z,7.04
2018-03-06T22:23:59.295Z,7.08
2018-03-06T22:26:27.648Z,7.13
2018-03-06T22:28:56.751Z,7.17
2018-03-06T22:31:26.247Z,7.24
2018-03-06T22:33:55.427Z,7.13
2018-03-06T22:36:23.773Z,7.13
2018-03-06T22:38:52.137Z,7.18
2018-03-06T22:41:20.464Z,7.24
2018-03-06T22:43:48.888Z,7.28
2018-03-06T22:46:17.560Z,7.35
2018-03-06T22:48:45.892Z,7.46
2018-03-06T22:51:14.384Z,7.48
2018-03-06T22:53:42.752Z,7.45
2018-03-06T22:56:11.088Z,7.32
2018-03-06T22:58:39.426Z,7.35
2018-03-06T23:01:07.773Z,7.19
2018-03-06T23:03:36.089Z,7.20
2018-03-06T23:06:04.424Z,7.11
2018-03-06T23:08:33.078Z,7.13
2018-03-06T23:11:01.421Z,7.25
2018-03-06T23:13:29.726Z,7.34
2018-03-06T23:15:58.110Z,7.34
2018-03-06T23:18:26.441Z,7.25
2018-03-06T23:20:54.749Z,7.12
2018-03-06T23:23:23.865Z,7.19
2018-03-06T23:25:52.997Z,7.11
2018-03-06T23:28:21.294Z,7.17
2018-03-06T23:30:50.260Z,7.22
2018-03-06T23:33:18.579Z,7.06
2018-03-06T23:35:46.896Z,7.06
2018-03-06T23:38:16.301Z,7.15
2018-03-06T23:40:44.630Z,7.08
2018-03-06T23:43:12.962Z,6.93
2018-03-06T23:45:41.308Z,7.11
2018-03-06T23:48:09.654Z,7.17
2018-03-06T23:50:37.966Z,7.05
2018-03-06T23:53:06.403Z,7.01
2018-03-06T23:55:35.489Z,7.14
2018-03-06T23:58:03.807Z,7.04
